Lunes, 01 de Septiembre del 2014

portal contactenos mapa del sitio buscar Revisar Correo Corporativo

Reporte METAR Consolidado

|| Reporte TAF Consolidado ||

Informe METAR emitido cada hora.

METAR

ESTACIÓN

AEROPUERTO

HORA UTC

DESCRIPCIÓN

SLGM

Guayaramerín

10-49S|65-20W

13:00

SLGM 011300Z 36006KT 6000 FEW020 BKN200 26/23 Q1014 A2996 HR85 FU=

SLRI

Riberalta

11-00S|66-04W

13:00

SLRI 011300Z 36006KT 3000 FU SCT080 BKN200 27/22 Q1014 A2995 HR75=

SLCO

Cobija

11-02S|68-47W

13:00

SLCO 011300Z 33004KT 5000 FU NSC 27/21 Q1014 A2995 986.9 HR71 CI=

SLJO

San Joaquin

13-03S|64-39W

13:00

SLJO 011300Z 00000KT 8000 NSC 29/23 Q1012 A2991 HR70 FU CI RWY NML=

SLRA

San Ramón

13-15S|64-36W

13:00

SLRA 011300Z 32008KT 7000 NSC 29/22 Q1012 A2991 HR67 FU CI RWY NML=

SLMG

San Magdalena

13-15S|64-03W

13:00

SLMG 011300Z 32006KT 8000 NSC 29/22 Q1012 A2989 HR67 FU CI RWY NML=

SLBU

Baures

13-39S|63-42W

13:00

SLBU 011300Z 36005KT 8000 NSC 30/23 Q1013 A2992 HR66 FU RWY NML=

SLSA

Santa Ana de Yacuma

13-45S|65-26W

13:00

SLSA 011300Z 33012KT 9999 NSC 29/22 Q1012 A2989 HR64 CI=

SLSR

Santa Rosa

14-04S|66-47W

13:00

SLSR 011300Z 35004KT 9999 NSC 27/24 Q1009 A2981 HR83 RWY NML=

SLRY

Reyes

14-18S|67-21W

13:00

SLRY 011300Z 00000KT 9999 NSC 27/22 Q1013 A2994 HR74 RWY OPR 1 000M=

SLRQ

Rurrenabaque

14-25S|67-29W

13:00

SLRQ 011300Z 00000KT 9999 NSC 27/23 Q1012 A2991 HR79 CI=

SLAP

Apolo

14-44S|68-24W

-

Mensaje no Recibido

SLTR

Trinidad

14-49S|64-54W

13:00

SLTR 011300Z 31012KT 9000 NSC 29/21 Q1012 A2990 994.1 HR63 FU CI NOSIG=

SLSB

San Borja

14-51S|66-44W

13:00

SLSB 011300Z 00000KT 9999 NSC 26/23 Q1012 A2991 FU HR81 RWY NML=

SLSM

San Ignacio de Moxos

14-57S|65-38W

13:00

SLSM 011300Z 36004KT 9999 NSC 26/22 Q1011 A2986 HR79 CI RWY NML=

SLAS

Ascención de Guarayos

15-55S|63-09W

13:00

SLAS 011300Z 33005KT 6000 NSC 29/21 Q1014 A2995 HR61 FU RWY NML=

SLCP

Concepción

16-08S|62-01W

13:00

SLCP 011300Z 30010KT 5000 FU NSC 28/21 Q1016 A3000 HR65 RWY NML=

SLLP

Internaciónal El Alto

16-08S|68-10W

13:00

SLLP 011300Z 07006KT 9999 FEW004 SCT013 BKN070 05/03 Q1040 A3071 629.5 P0186 PCPN NE/E/SE HR87 NOSIG=

SLJV

San Javier

16-16S|62-28W

13:00

SLJV 011300Z 34010KT 9999 NSC 25/21 Q1012 A2988 HR79 FU RWY NML=

SLTI

San Matías

16-20S|58-24W

13:00

SLTI 011300Z 00000KT 8000 NSC 31/23 Q1018 A3006 HR61 FU CI RWY NML=

SLSI

San Ignacio de Velasco

16-23S|60-57W

13:00

SLSI 011300Z 00000KT 9999 NSC 26/21 Q1013 A2991 HR72 RWY NML=

SLCB

Cochabamba

17-25S|66-10W

13:00

SLCB 011300Z 00000KT 8000 FEW027 SCT070 18/05 Q1027 A3033 752.9 HR43 VIS FU CI NOSIG=

SLCN

Charaña

17-35S|69-25W

-

Mensaje no Recibido

SLVR

Internaciónal Viru Viru

17-38S|63-08W

13:00

SLVR 011300Z 33016G26KT 9999 NSC 29/20 Q1011 A2986 HR57 CI NOSIG=

SLET

El Trompillo

17-48S|63-10W

13:00

SLET 011300Z 32016G28KT 9999 FEW017 SCT200 29/20 Q1010 A2985 HR59 NOSIG=

SLJE

San José de Chiquitos

17-49S|60-44W

13:00

SLJE 011300Z 36006KT 6000 NSC 30/19 Q1014 A2994 HR54 FU RWY NML=

SLOR

Oruro

17-57S|67-04W

13:00

SLOR 011300Z 35006KT 9999 FEW013 SCT070 07/04 Q1037 A3065 657.9 CI HR83=

SLRB

Roboré

18-19S|59-45W

13:00

SLRB 011300Z 33010KT 9999 NSC 31/23 Q1015 A2997 HR64 FU RWY NML=

SLVG

Valle Grande

18-28S|64-05W

13:00

SLVG 011300Z 00000KT 9999 NSC 18/14 Q1024 A3024 HR73 FU RWY HUM OPR=

SLPS

Puerto Suárez

18-58S|57-49W

13:00

SLPS 011300Z 00000KT 8000 NSC 31/24 Q1011 A2986 HR66 FU=

SLSU

Sucre

19-00S|65-17W

13:00

SLSU 011300Z 00000KT 9999 SCT070 SCT200 15/06 Q1030 A3042 HR58=

SLPO

Potosí

19-32S|65-43W

13:00

SLPO 011300Z 24006KT 9999 FEW070 BKN200 04/M05 Q1037 A3062 HR59=

SLAG

Monteagudo

19-49S|63-58W

13:00

SLAG 011300Z 00000KT 9999 NSC 19/16 Q1016 A3000 HR85 CI/FU RWY CLSD=

SLCA

Camiri

20-00S|63-31W

13:00

SLCA 011300Z 00000KT 9999 BKN080 21/15 Q1014 A2994 HR68 FU RWY NML=

SLUY

Uyuni

20-27S|62-52W

13:00

SLUY 011300Z 00000KT 9999 FEW012 FEW015CB SCT080 04/M06 Q1036 A3060 659.7 CB DIST/NE AS/CI HR51=

SLVM

Villamontes

21-15S|63-24W

13:00

SLVM 011300Z 00000KT 6000 NSC 28/17 Q1008 A2977 HR53 CC FU=

SLTJ

Tarija

21-33S|64-42W

13:00

SLTJ 011300Z 00000KT 9999 SCT100 18/12 Q1017 A3006 HR71 CI FU=

SLYA

Yacuiba

21-57S|63-39W

13:00

SLYA 011300Z 00000KT 9999 FEW070 BKN200 27/17 Q1010 A2983 HR53 FU=

SLBJ

Bermejo

22-46S|64-18W

13:00

SLBJ 011300Z 36004KT 6000 NSC 23/19 Q1008 A2980 HR79 CI/FU